EmailTwitter


Surface observations / United Kingdom / EGUB (03658)

Regions: Quebec | Canada | USA | Europe | France | UK | Elsewhere
Station
Display
Info & Location for EGUB (03658) | Help decoding METAR

Weather Conditions observed on 2020/02/24 at 10:50 UTC at BENSON RAF, UK (EGUB)

Sky conditions: overcast.

Obstruction(s) to Vision: light rain.

Temperature: 11.0 Celsius.

Dewpoint: 10.0 Celsius.

Relative Humidity: 94%

Windchill Factor: 8.

Windchill Factor (Gusts): 7.

Winds: Southwest at 33 km/h or 18 knots.

Gust: 54 km/h or 29 knots.

Mean Sea level Pressure: 100.70 kilopascals.

Horizontal visibility: 6.21 statute miles or 9.94 kilometers.

Height of the Ceiling: 396 metres ( 1300 feet ).

Coded METAR:

EGUB 241050Z 22018G29KT 9999 -RA BKN013 OVC017 11/10 Q1007 TEMPO 4000 RA RMK

GRN TEMPO GRN=